Terminal Aerodrome Forecast
Issued by NWS Grand Rapids, MI

Home | Current Version | Previous Version | Text Only | Print | Product List | Glossary On
Versions: 1 2 3 4 5 6 7 8 9 10 11 12 13 14 15 16 17 18 19 20 21
000
FTUS43 KGRR 011135
TAFGRR
TAF
KGRR 011135Z 0112/0212 31007KT P6SM OVC006
     FM011500 31008KT P6SM BKN012
     FM011800 31009KT P6SM BKN025
     FM012200 34005KT P6SM SCT035=

USA.gov is the U.S. government's official web portal to all federal, state and local government web resources and services.